Time;durP1;ratioP1;P1;durP2;ratioP2;P2;SDS_P1;SDS_P2;PMS_P1;PMS_P2;Temp;Humidity;BMP_temperature;BMP_pressure;BME280_temperature;BME280_humidity;BME280_pressure;Samples;Min_cycle;Max_cycle;Signal;HPM_P1;HPM_P2
2022/09/17 00:00:02;;;;;;;;;3.50;3.50;;;;;11.06;76.74;99384.72;5032755;28;8825;-62
2022/09/17 00:02:29;;;;;;;;;3.00;3.00;;;;;11.07;76.47;99391.72;5032284;28;8943;-61
2022/09/17 00:04:57;;;;;;;;;3.25;1.50;;;;;11.06;76.40;99383.91;5032915;28;8825;-62
2022/09/17 00:07:24;;;;;;;;;1.00;1.00;;;;;11.04;76.32;99394.69;5032708;28;8844;-61
2022/09/17 00:09:52;;;;;;;;;1.00;1.00;;;;;11.03;76.67;99389.50;5031953;28;8921;-62
2022/09/17 00:12:20;;;;;;;;;3.25;3.00;;;;;11.03;76.46;99390.34;5031591;28;8893;-62
2022/09/17 00:14:47;;;;;;;;;4.00;4.00;;;;;11.05;76.39;99385.72;5030580;28;8821;-62
2022/09/17 00:17:15;;;;;;;;;3.50;3.50;;;;;11.07;76.74;99389.06;5031388;28;8825;-62
2022/09/17 00:19:43;;;;;;;;;3.25;3.25;;;;;11.06;76.45;99389.22;5031274;28;8958;-62
2022/09/17 00:22:12;;;;;;;;;3.00;3.00;;;;;11.04;76.46;99389.34;5031232;28;8840;-61
2022/09/17 00:24:40;;;;;;;;;3.00;3.00;;;;;11.03;76.42;99397.47;5030902;28;8809;-62
2022/09/17 00:27:07;;;;;;;;;3.00;3.00;;;;;11.02;76.77;99394.00;5030630;28;8825;-62
2022/09/17 00:29:35;;;;;;;;;0.00;0.00;;;;;11.02;76.70;99396.66;5029446;28;8943;-62
2022/09/17 00:32:03;;;;;;;;;3.00;2.00;;;;;11.01;76.63;99397.59;5030283;28;8841;-63
2022/09/17 00:34:30;;;;;;;;;2.50;2.00;;;;;11.00;76.50;99401.25;5030742;28;8820;-61
2022/09/17 00:36:58;;;;;;;;;2.00;1.00;;;;;11.03;77.01;99405.47;5030674;28;8837;-61
2022/09/17 00:39:25;;;;;;;;;5.00;4.50;;;;;11.04;76.42;99405.34;5033627;28;8917;-62
2022/09/17 00:41:53;;;;;;;;;1.00;0.75;;;;;11.02;76.32;99399.31;5034228;28;8941;-62
2022/09/17 00:44:21;;;;;;;;;4.00;3.25;;;;;11.01;76.87;99402.94;5034726;28;8821;-62
2022/09/17 00:46:49;;;;;;;;;5.50;4.50;;;;;10.98;76.83;99403.22;5034675;28;8841;-61
2022/09/17 00:49:16;;;;;;;;;6.25;5.50;;;;;10.96;76.87;99397.19;5033705;28;8921;-62
2022/09/17 00:51:44;;;;;;;;;6.00;6.00;;;;;10.94;77.22;99400.97;5034721;28;8856;-62
2022/09/17 00:54:12;;;;;;;;;6.50;6.50;;;;;10.92;77.05;99401.09;5034532;28;8905;-62
2022/09/17 00:56:39;;;;;;;;;6.00;5.00;;;;;10.93;77.35;99400.13;5034502;28;8813;-62
2022/09/17 00:59:07;;;;;;;;;9.00;6.75;;;;;10.93;77.12;99399.28;5034141;28;8869;-61
2022/09/17 01:01:35;;;;;;;;;9.00;8.50;;;;;10.92;77.05;99394.94;5034326;28;8849;-61
2022/09/17 01:04:02;;;;;;;;;9.50;9.25;;;;;10.89;76.96;99396.06;5034445;28;8813;-61
2022/09/17 01:06:30;;;;;;;;;9.00;7.00;;;;;10.88;77.30;99410.38;5035150;28;8845;-61
2022/09/17 01:08:58;;;;;;;;;6.25;6.25;;;;;10.85;77.39;99409.78;5034887;28;8887;-61
2022/09/17 01:11:26;;;;;;;;;8.25;6.50;;;;;10.84;76.98;99416.09;5034057;28;8844;-61
2022/09/17 01:13:53;;;;;;;;;6.00;5.50;;;;;10.82;77.26;99418.03;5034334;28;8918;-61
2022/09/17 01:16:21;;;;;;;;;7.00;7.00;;;;;10.81;77.58;99413.69;5033611;28;8890;-61
2022/09/17 01:18:49;;;;;;;;;6.50;4.00;;;;;10.81;77.80;99416.34;5033770;28;8959;-61
2022/09/17 01:21:16;;;;;;;;;9.00;9.00;;;;;10.79;77.35;99419.19;5033793;28;8828;-62
2022/09/17 01:23:44;;;;;;;;;10.25;9.50;;;;;10.79;77.45;99413.00;5033955;28;8845;-61
2022/09/17 01:26:12;;;;;;;;;9.75;9.00;;;;;10.81;77.57;99417.22;5033383;28;8820;-61
2022/09/17 01:28:40;;;;;;;;;6.75;6.00;;;;;10.83;77.25;99420.56;5033824;28;8833;-61
2022/09/17 01:31:08;;;;;;;;;10.25;9.00;;;;;10.81;77.30;99414.56;5033656;28;8809;-61
2022/09/17 01:33:37;;;;;;;;;11.00;9.00;;;;;10.76;77.32;99414.09;5033779;28;8851;-61
2022/09/17 01:36:05;;;;;;;;;9.00;9.00;;;;;10.72;77.74;99418.03;5033270;28;8853;-62
2022/09/17 01:38:32;;;;;;;;;8.50;6.75;;;;;10.68;77.95;99411.28;5033549;28;8841;-61
2022/09/17 01:41:00;;;;;;;;;10.00;9.75;;;;;10.64;78.08;99425.88;5033684;28;8937;-62
2022/09/17 01:43:28;;;;;;;;;7.50;6.50;;;;;10.60;77.55;99423.56;5032625;28;8829;-61
2022/09/17 01:45:55;;;;;;;;;10.50;8.25;;;;;10.59;77.76;99419.22;5032540;28;8905;-61
2022/09/17 01:48:23;;;;;;;;;8.50;6.75;;;;;10.54;78.00;99419.63;5031526;28;9509;-61
2022/09/17 01:50:51;;;;;;;;;8.00;6.50;;;;;10.52;77.85;99426.94;5031378;28;8840;-61
2022/09/17 01:53:18;;;;;;;;;8.00;6.75;;;;;10.47;77.93;99431.81;5031349;28;8900;-61
2022/09/17 01:55:48;;;;;;;;;4.00;4.00;;;;;10.45;78.23;99433.75;5032272;28;8925;-62
2022/09/17 01:58:15;;;;;;;;;6.50;6.00;;;;;10.45;78.29;99431.09;5032060;28;8841;-61
2022/09/17 02:00:43;;;;;;;;;5.25;5.00;;;;;10.45;78.27;99433.75;5032585;28;8918;-61
2022/09/17 02:03:11;;;;;;;;;3.50;3.00;;;;;10.46;78.31;99438.09;5034588;28;8824;-61
2022/09/17 02:05:39;;;;;;;;;8.00;6.75;;;;;10.46;78.26;99426.63;5033422;28;8821;-61
2022/09/17 02:08:06;;;;;;;;;7.00;6.00;;;;;10.46;78.66;99421.31;5034630;28;8908;-61
2022/09/17 02:10:34;;;;;;;;;7.75;7.50;;;;;10.44;78.45;99429.41;5033404;28;8845;-61
2022/09/17 02:13:02;;;;;;;;;6.50;6.50;;;;;10.42;78.30;99431.38;5033069;28;8844;-61
2022/09/17 02:15:29;;;;;;;;;7.50;6.50;;;;;10.42;78.40;99431.38;5032493;28;8809;-61
2022/09/17 02:17:57;;;;;;;;;6.00;6.00;;;;;10.42;78.60;99436.72;5033178;28;8911;-61
2022/09/17 02:20:25;;;;;;;;;10.75;9.00;;;;;10.41;78.55;99436.81;5033562;28;8832;-61
2022/09/17 02:22:52;;;;;;;;;9.75;7.75;;;;;10.41;78.24;99439.50;5032803;28;8821;-61
2022/09/17 02:25:20;;;;;;;;;8.50;7.50;;;;;10.39;78.28;99442.28;5032491;28;8817;-61
2022/09/17 02:27:47;;;;;;;;;8.00;7.00;;;;;10.44;78.56;99442.72;5032898;28;8837;-61
2022/09/17 02:30:15;;;;;;;;;7.50;7.00;;;;;10.44;78.44;99440.06;5032772;28;8825;-61
2022/09/17 02:32:43;;;;;;;;;6.00;5.00;;;;;10.44;78.05;99439.22;5032957;28;8897;-61
2022/09/17 02:35:12;;;;;;;;;14.25;11.50;;;;;10.44;78.04;99442.72;5032780;28;9685;-62
2022/09/17 02:37:40;;;;;;;;;11.50;10.00;;;;;10.43;78.41;99446.38;5033282;28;8941;-61
2022/09/17 02:40:08;;;;;;;;;13.00;13.00;;;;;10.43;78.24;99437.53;5032574;28;8837;-62
2022/09/17 02:42:35;;;;;;;;;13.75;13.25;;;;;10.41;78.43;99437.66;5032524;28;8828;-62
2022/09/17 02:45:03;;;;;;;;;12.25;11.00;;;;;10.43;78.15;99442.84;5032099;28;8829;-61
2022/09/17 02:47:31;;;;;;;;;11.50;10.00;;;;;10.45;78.00;99431.09;5032838;28;8818;-60
2022/09/17 02:49:59;;;;;;;;;12.25;10.50;;;;;10.50;78.31;99444.00;5032708;28;8888;-61
2022/09/17 02:52:26;;;;;;;;;12.00;10.50;;;;;10.53;77.59;99433.06;5032780;28;8833;-61
2022/09/17 02:54:54;;;;;;;;;14.00;12.00;;;;;10.58;77.60;99430.88;5032063;28;8809;-62
2022/09/17 02:57:22;;;;;;;;;10.50;9.25;;;;;10.61;78.32;99436.75;5032021;28;8900;-61
2022/09/17 02:59:50;;;;;;;;;7.50;5.25;;;;;10.63;77.70;99429.47;5032114;28;8820;-63
2022/09/17 03:02:18;;;;;;;;;11.75;11.00;;;;;10.67;77.80;99438.03;5032378;28;8897;-61
2022/09/17 03:04:46;;;;;;;;;12.00;11.00;;;;;10.69;77.72;99444.91;5032184;28;8817;-61
2022/09/17 03:07:13;;;;;;;;;10.75;9.00;;;;;10.72;77.63;99441.16;5032567;28;8829;-61
2022/09/17 03:09:42;;;;;;;;;11.75;10.50;;;;;10.75;77.68;99438.19;5032491;28;9613;-61
2022/09/17 03:12:09;;;;;;;;;10.50;9.25;;;;;10.76;77.87;99432.75;5032362;28;8849;-61
2022/09/17 03:14:37;;;;;;;;;12.50;12.00;;;;;10.78;77.55;99437.94;5032095;28;8936;-61
2022/09/17 03:17:05;;;;;;;;;6.75;6.75;;;;;10.79;77.67;99447.63;5032256;28;9510;-61
2022/09/17 03:19:33;;;;;;;;;6.50;6.50;;;;;10.81;77.84;99440.31;5032757;28;9560;-61
2022/09/17 03:22:00;;;;;;;;;11.00;10.00;;;;;10.82;77.89;99440.19;5032037;28;8913;-61
2022/09/17 03:24:28;;;;;;;;;6.75;6.75;;;;;10.84;77.27;99448.06;5031440;28;8829;-61
2022/09/17 03:26:56;;;;;;;;;6.25;6.00;;;;;10.86;77.20;99440.78;5031442;28;9199;-62
2022/09/17 03:29:23;;;;;;;;;11.00;10.50;;;;;10.86;77.57;99433.59;5032279;28;8898;-61
2022/09/17 03:31:51;;;;;;;;;12.00;10.00;;;;;10.87;77.50;99437.13;5031490;28;8821;-62
2022/09/17 03:34:19;;;;;;;;;12.25;9.50;;;;;10.88;77.17;99439.66;5031806;28;9550;-61
2022/09/17 03:36:47;;;;;;;;;6.75;6.75;;;;;10.88;77.35;99434.34;5032272;28;8914;-61
2022/09/17 03:39:16;;;;;;;;;6.75;6.25;;;;;10.89;77.26;99432.50;5031872;28;8906;-61
2022/09/17 03:41:44;;;;;;;;;2.50;1.00;;;;;10.88;77.61;99445.00;5032222;28;8853;-62
2022/09/17 03:44:11;;;;;;;;;6.00;3.50;;;;;10.89;77.72;99444.00;5031594;28;8825;-61
2022/09/17 03:46:39;;;;;;;;;3.00;1.00;;;;;10.87;77.60;99445.97;5032029;28;8841;-60
2022/09/17 03:49:07;;;;;;;;;4.50;4.00;;;;;10.81;77.73;99454.50;5032044;28;8837;-60
2022/09/17 03:51:35;;;;;;;;;3.75;3.00;;;;;10.79;77.90;99455.59;5032094;28;8841;-61
2022/09/17 03:54:03;;;;;;;;;1.00;1.00;;;;;10.73;78.01;99458.81;5031564;28;8860;-61
2022/09/17 03:56:30;;;;;;;;;3.00;3.00;;;;;10.68;78.24;99453.88;5032182;28;9553;-62
2022/09/17 03:58:59;;;;;;;;;3.25;3.00;;;;;10.64;78.24;99457.81;5032128;28;8829;-62
2022/09/17 04:01:27;;;;;;;;;3.00;3.00;;;;;10.62;78.51;99465.06;5032029;28;9494;-61
2022/09/17 04:03:54;;;;;;;;;3.00;3.00;;;;;10.57;78.35;99462.00;5031378;28;8909;-61
2022/09/17 04:06:22;;;;;;;;;6.50;4.00;;;;;10.53;78.48;99460.56;5031565;28;8801;-61
2022/09/17 04:08:50;;;;;;;;;3.00;3.00;;;;;10.54;78.63;99470.22;5031795;28;8885;-61
2022/09/17 04:11:18;;;;;;;;;6.00;5.00;;;;;10.53;78.60;99465.88;5031861;28;8906;-61
2022/09/17 04:13:45;;;;;;;;;2.00;2.00;;;;;10.52;78.34;99464.19;5034427;28;9510;-61
2022/09/17 04:16:13;;;;;;;;;3.00;3.00;;;;;10.50;78.67;99465.31;5034762;28;8816;-61
2022/09/17 04:18:41;;;;;;;;;3.00;3.00;;;;;10.49;78.84;99458.28;5034779;28;8821;-61
2022/09/17 04:21:08;;;;;;;;;5.25;3.00;;;;;10.46;78.93;99471.88;5034865;28;8901;-61
2022/09/17 04:23:37;;;;;;;;;2.00;2.00;;;;;10.42;78.74;99473.97;5035083;28;8817;-61
2022/09/17 04:26:04;;;;;;;;;1.50;1.50;;;;;10.42;78.99;99460.66;5034149;28;8813;-60
2022/09/17 04:28:32;;;;;;;;;3.50;3.50;;;;;10.41;78.70;99472.25;5034421;28;8901;-61
2022/09/17 04:30:59;;;;;;;;;4.00;3.00;;;;;10.41;78.96;99474.09;5034091;28;8825;-60
2022/09/17 04:33:27;;;;;;;;;3.00;3.00;;;;;10.40;78.88;99478.56;5034166;28;8841;-61
2022/09/17 04:35:55;;;;;;;;;0.50;0.50;;;;;10.40;78.94;99473.22;5033995;28;8821;-60
2022/09/17 04:38:23;;;;;;;;;2.50;1.00;;;;;10.42;79.00;99468.66;5034561;28;8825;-61
2022/09/17 04:40:50;;;;;;;;;2.00;2.00;;;;;10.46;78.50;99475.38;5034459;28;9654;-61
2022/09/17 04:43:18;;;;;;;;;2.00;1.00;;;;;10.46;78.85;99475.38;5034693;28;8833;-60
2022/09/17 04:45:46;;;;;;;;;1.00;1.00;;;;;10.50;78.90;99470.63;5034612;28;9498;-61
2022/09/17 04:48:13;;;;;;;;;0.50;0.50;;;;;10.49;78.68;99477.78;5034653;28;8897;-61
2022/09/17 04:50:41;;;;;;;;;1.00;1.00;;;;;10.49;78.59;99482.25;5034139;28;8964;-62
2022/09/17 04:53:09;;;;;;;;;2.00;2.00;;;;;10.48;78.62;99480.56;5033838;28;9533;-61
2022/09/17 04:55:36;;;;;;;;;2.00;1.25;;;;;10.48;78.73;99486.72;5033566;28;8836;-61
2022/09/17 04:58:04;;;;;;;;;0.25;0.25;;;;;10.47;78.54;99486.88;5034213;28;8825;-60
2022/09/17 05:00:32;;;;;;;;;2.00;2.00;;;;;10.45;78.81;99483.47;5034078;28;8821;-60
2022/09/17 05:02:59;;;;;;;;;1.00;0.50;;;;;10.42;79.01;99486.41;5033986;28;8840;-62
2022/09/17 05:05:27;;;;;;;;;1.00;1.00;;;;;10.39;78.67;99495.50;5033554;28;8818;-62
2022/09/17 05:07:55;;;;;;;;;3.00;2.50;;;;;10.41;78.55;99501.53;5034132;28;8837;-61
2022/09/17 05:10:23;;;;;;;;;3.00;2.50;;;;;10.43;78.74;99482.78;5033706;28;8841;-61
2022/09/17 05:12:51;;;;;;;;;3.00;1.50;;;;;10.47;78.49;99486.88;5033983;28;8833;-61
2022/09/17 05:15:18;;;;;;;;;2.00;2.00;;;;;10.50;78.71;99492.78;5033693;28;8899;-61
2022/09/17 05:17:46;;;;;;;;;1.00;1.00;;;;;10.51;78.35;99494.47;5034143;28;8829;-61
2022/09/17 05:20:13;;;;;;;;;1.00;1.00;;;;;10.54;78.20;99496.03;5032903;28;8821;-60
2022/09/17 05:22:41;;;;;;;;;1.50;1.00;;;;;10.56;78.42;99499.38;5033112;28;8913;-61
2022/09/17 05:25:09;;;;;;;;;4.00;3.00;;;;;10.59;78.19;99502.63;5032262;28;8821;-61
2022/09/17 05:27:36;;;;;;;;;1.00;1.00;;;;;10.62;78.07;99491.69;5032562;28;8824;-61
2022/09/17 05:30:05;;;;;;;;;0.50;0.50;;;;;10.65;78.59;99494.09;5032704;28;8905;-61
2022/09/17 05:32:33;;;;;;;;;0.25;0.25;;;;;10.67;78.14;99494.81;5032501;28;8833;-61
2022/09/17 05:35:00;;;;;;;;;0.50;0.50;;;;;10.67;78.01;99497.47;5031575;28;8889;-60
2022/09/17 05:37:32;;;;;;;;;0.25;0.25;;;;;10.64;78.23;99500.41;5032257;28;8829;-61
2022/09/17 05:39:59;;;;;;;;;2.00;2.00;;;;;10.62;78.01;99506.84;5032915;28;8840;-60
2022/09/17 05:42:27;;;;;;;;;1.00;0.00;;;;;10.59;78.11;99507.94;5032659;28;8853;-61
2022/09/17 05:44:54;;;;;;;;;2.50;1.00;;;;;10.58;78.42;99510.72;5032490;28;8905;-61
2022/09/17 05:47:22;;;;;;;;;0.00;0.00;;;;;10.57;78.92;99511.72;5033173;28;8914;-61
2022/09/17 05:49:49;;;;;;;;;3.00;3.00;;;;;10.56;78.53;99508.19;5032364;28;8833;-61
2022/09/17 05:52:18;;;;;;;;;0.00;0.00;;;;;10.57;78.41;99512.56;5032221;28;8821;-61
2022/09/17 05:54:45;;;;;;;;;0.25;0.00;;;;;10.62;78.89;99514.84;5031625;28;8809;-61
2022/09/17 05:57:14;;;;;;;;;0.50;0.50;;;;;10.62;78.28;99515.66;5032141;28;8833;-61
2022/09/17 05:59:42;;;;;;;;;0.50;0.50;;;;;10.62;78.03;99518.31;5031800;28;8837;-61
2022/09/17 06:02:11;;;;;;;;;0.00;0.00;;;;;10.64;78.26;99519.06;5031816;28;8929;-61
2022/09/17 06:04:39;;;;;;;;;1.00;1.00;;;;;10.68;78.49;99525.78;5030943;28;8832;-60
2022/09/17 06:07:08;;;;;;;;;1.00;1.00;;;;;10.74;77.93;99527.06;5031337;28;8833;-61
2022/09/17 06:09:36;;;;;;;;;0.00;0.00;;;;;10.82;78.44;99525.44;5031739;28;8980;-61
2022/09/17 06:12:03;;;;;;;;;0.00;0.00;;;;;10.91;77.51;99527.28;5031894;28;8841;-61
2022/09/17 06:14:32;;;;;;;;;0.50;0.50;;;;;11.00;77.33;99526.47;5030857;28;8909;-60
2022/09/17 06:17:00;;;;;;;;;0.00;0.00;;;;;11.10;77.07;99537.16;5031510;28;8855;-61
2022/09/17 06:19:27;;;;;;;;;1.00;0.50;;;;;11.20;77.27;99540.69;5031719;28;8844;-61
2022/09/17 06:21:55;;;;;;;;;1.00;1.00;;;;;11.28;76.98;99547.06;5031486;28;8845;-61
2022/09/17 06:24:22;;;;;;;;;4.00;0.00;;;;;11.39;76.69;99530.09;5029945;28;8904;-61
2022/09/17 06:26:50;;;;;;;;;0.00;0.00;;;;;11.48;76.21;99537.28;5031053;28;9506;-61
2022/09/17 06:29:18;;;;;;;;;0.00;0.00;;;;;11.58;76.31;99543.47;5030548;28;8825;-61
2022/09/17 06:31:46;;;;;;;;;1.00;0.00;;;;;11.67;76.28;99545.34;5030608;28;8833;-62
2022/09/17 06:34:13;;;;;;;;;0.00;0.00;;;;;11.72;75.79;99541.28;5031307;28;8828;-61
2022/09/17 06:36:41;;;;;;;;;2.25;2.25;;;;;11.78;76.03;99546.06;5030304;28;8821;-61
2022/09/17 06:39:10;;;;;;;;;1.00;1.00;;;;;11.85;75.77;99544.53;5030550;28;8852;-61
2022/09/17 06:41:38;;;;;;;;;0.00;0.00;;;;;11.92;75.44;99537.66;5031290;28;8971;-61
2022/09/17 06:44:05;;;;;;;;;0.75;0.75;;;;;11.97;75.54;99542.56;5032076;28;8840;-61
2022/09/17 06:46:33;;;;;;;;;0.00;0.00;;;;;12.00;75.70;99548.47;5031183;28;8821;-61
2022/09/17 06:49:00;;;;;;;;;0.00;0.00;;;;;12.04;75.68;99549.84;5032541;28;8821;-61
2022/09/17 06:51:28;;;;;;;;;0.00;0.00;;;;;12.07;75.69;99549.59;5032033;28;8821;-61
2022/09/17 06:53:56;;;;;;;;;1.00;0.50;;;;;12.08;75.33;99548.59;5031217;28;8833;-61
2022/09/17 06:56:24;;;;;;;;;0.25;0.00;;;;;12.07;75.20;99549.59;5031865;28;8901;-60
2022/09/17 06:58:52;;;;;;;;;0.00;0.00;;;;;12.05;75.90;99562.19;5032320;28;8909;-61
2022/09/17 07:01:19;;;;;;;;;1.00;0.50;;;;;12.01;75.34;99558.16;5032158;28;8832;-61
2022/09/17 07:03:48;;;;;;;;;0.00;0.00;;;;;11.98;75.87;99560.25;5032087;28;9768;-61
2022/09/17 07:06:16;;;;;;;;;0.00;0.00;;;;;11.94;75.62;99565.03;5031133;28;9466;-60
2022/09/17 07:08:43;;;;;;;;;5.25;3.75;;;;;11.92;75.76;99566.13;5032107;28;8833;-61
2022/09/17 07:11:11;;;;;;;;;0.00;0.00;;;;;11.87;76.23;99576.38;5031738;28;8849;-61
2022/09/17 07:13:39;;;;;;;;;0.00;0.00;;;;;11.83;76.25;99566.97;5031566;28;9256;-61
2022/09/17 07:16:07;;;;;;;;;0.25;0.00;;;;;11.82;76.26;99568.78;5031288;28;8906;-60
2022/09/17 07:18:34;;;;;;;;;0.00;0.00;;;;;11.83;76.45;99565.13;5031515;28;8841;-61
2022/09/17 07:21:03;;;;;;;;;0.00;0.00;;;;;11.89;76.35;99566.44;5031768;28;8829;-61
2022/09/17 07:23:30;;;;;;;;;0.00;0.00;;;;;11.92;76.16;99567.00;5031321;28;8892;-61
2022/09/17 07:25:58;;;;;;;;;0.00;0.00;;;;;11.91;75.62;99565.28;5031141;28;8829;-61
2022/09/17 07:28:26;;;;;;;;;0.00;0.00;;;;;11.93;75.98;99569.50;5031432;28;8845;-61
2022/09/17 07:30:54;;;;;;;;;0.00;0.00;;;;;11.92;76.30;99556.31;5031398;28;8817;-61
2022/09/17 07:33:23;;;;;;;;;0.00;0.00;;;;;11.95;76.11;99562.19;5030966;28;8844;-62
2022/09/17 07:35:51;;;;;;;;;0.00;0.00;;;;;11.97;75.79;99554.06;5030955;28;8882;-61
2022/09/17 07:38:18;;;;;;;;;0.50;0.00;;;;;12.05;75.50;99557.72;5031046;28;8879;-61
2022/09/17 07:40:46;;;;;;;;;2.50;2.50;;;;;12.18;75.61;99563.63;5031027;28;8924;-61
2022/09/17 07:43:14;;;;;;;;;0.00;0.00;;;;;12.26;75.14;99562.91;5030548;28;9610;-61
2022/09/17 07:45:42;;;;;;;;;0.50;0.50;;;;;12.28;75.02;99561.78;5029930;28;9806;-60
2022/09/17 07:48:09;;;;;;;;;0.00;0.00;;;;;12.28;75.44;99558.25;5032143;28;9526;-61
2022/09/17 07:50:37;;;;;;;;;0.00;0.00;;;;;12.24;75.62;99564.88;5034007;28;8848;-60
2022/09/17 07:53:05;;;;;;;;;0.00;0.00;;;;;12.27;75.55;99562.78;5034161;28;8825;-60
2022/09/17 07:55:32;;;;;;;;;1.00;1.00;;;;;12.39;74.92;99568.81;5033305;28;8813;-60
2022/09/17 07:58:00;;;;;;;;;0.00;0.00;;;;;12.53;75.02;99573.69;5033939;28;8856;-60
2022/09/17 08:00:28;;;;;;;;;0.00;0.00;;;;;12.61;74.70;99560.47;5033894;28;8841;-61
2022/09/17 08:02:55;;;;;;;;;0.75;0.75;;;;;12.68;74.48;99561.56;5034216;28;8849;-60
2022/09/17 08:05:24;;;;;;;;;0.00;0.00;;;;;12.74;74.03;99563.66;5033962;28;8932;-62
2022/09/17 08:07:51;;;;;;;;;0.50;0.00;;;;;12.83;74.03;99560.13;5033418;28;8832;-60
2022/09/17 08:10:20;;;;;;;;;0.00;0.00;;;;;12.88;73.65;99563.19;5033432;28;8825;-60
2022/09/17 08:12:48;;;;;;;;;1.00;0.25;;;;;12.88;73.60;99563.19;5033491;28;8825;-61
2022/09/17 08:15:16;;;;;;;;;0.75;0.75;;;;;12.94;73.69;99557.25;5033153;28;8906;-60
2022/09/17 08:17:44;;;;;;;;;0.50;0.50;;;;;13.00;73.00;99557.53;5033196;28;8844;-60
2022/09/17 08:20:12;;;;;;;;;0.00;0.00;;;;;13.02;73.64;99560.94;5032606;28;8845;-60
2022/09/17 08:22:40;;;;;;;;;0.00;0.00;;;;;13.06;73.02;99556.13;5033063;28;8832;-61
2022/09/17 08:25:08;;;;;;;;;0.00;0.00;;;;;13.13;73.12;99557.22;5032655;28;8825;-60
2022/09/17 08:27:37;;;;;;;;;2.00;0.25;;;;;13.14;72.54;99558.91;5033296;28;9576;-60
2022/09/17 08:30:05;;;;;;;;;1.00;1.00;;;;;13.18;72.83;99560.28;5032823;28;9022;-61
2022/09/17 08:32:33;;;;;;;;;0.00;0.00;;;;;13.23;72.75;99548.16;5033429;28;8829;-60
2022/09/17 08:35:01;;;;;;;;;0.00;0.00;;;;;13.28;72.21;99558.44;5033453;28;8889;-61
2022/09/17 08:37:28;;;;;;;;;0.00;0.00;;;;;13.35;72.32;99562.19;5033812;28;8841;-61
2022/09/17 08:39:56;;;;;;;;;3.00;0.25;;;;;13.47;72.44;99544.94;5032718;28;9750;-60
2022/09/17 08:42:24;;;;;;;;;0.00;0.00;;;;;13.62;71.98;99548.78;5033567;28;8833;-60
2022/09/17 08:44:52;;;;;;;;;1.00;0.50;;;;;13.73;71.33;99556.63;5033437;28;8972;-60
2022/09/17 08:47:24;;;;;;;;;0.50;0.50;;;;;13.89;71.17;99562.13;5033033;28;8908;-61
2022/09/17 08:49:52;;;;;;;;;0.00;0.00;;;;;13.90;71.11;99558.44;5032435;28;8938;-60
2022/09/17 08:52:20;;;;;;;;;0.00;0.00;;;;;13.96;70.84;99552.50;5032819;28;8836;-61
2022/09/17 08:54:48;;;;;;;;;0.00;0.00;;;;;14.04;70.40;99557.94;5032594;28;8844;-60
2022/09/17 08:57:16;;;;;;;;;0.00;0.00;;;;;14.11;70.41;99553.63;5032298;28;8821;-60
2022/09/17 08:59:43;;;;;;;;;0.00;0.00;;;;;14.19;69.90;99556.41;5032990;28;8843;-61
2022/09/17 09:02:11;;;;;;;;;1.00;1.00;;;;;14.27;69.37;99554.63;5032705;28;8934;-61
2022/09/17 09:04:39;;;;;;;;;0.00;0.00;;;;;14.45;69.18;99557.28;5031839;28;8837;-61
2022/09/17 09:07:07;;;;;;;;;0.00;0.00;;;;;14.67;68.64;99546.06;5031674;28;8835;-60
2022/09/17 09:09:34;;;;;;;;;0.00;0.00;;;;;14.95;68.72;99547.59;5032365;28;8825;-60
2022/09/17 09:12:02;;;;;;;;;0.00;0.00;;;;;15.24;67.55;99545.41;5031753;28;8910;-61
2022/09/17 09:14:30;;;;;;;;;0.00;0.00;;;;;15.25;67.72;99542.53;5031322;28;8828;-61
2022/09/17 09:16:58;;;;;;;;;0.00;0.00;;;;;15.10;68.07;99541.44;5032221;28;9474;-61
2022/09/17 09:19:26;;;;;;;;;0.00;0.00;;;;;14.97;67.92;99546.44;5031577;28;8809;-61
2022/09/17 09:21:53;;;;;;;;;0.00;0.00;;;;;14.90;67.57;99547.22;5031766;28;8828;-61
2022/09/17 09:24:21;;;;;;;;;0.00;0.00;;;;;14.90;68.15;99541.84;5032236;28;8946;-61
2022/09/17 09:26:49;;;;;;;;;0.00;0.00;;;;;15.08;67.74;99542.59;5032734;28;8839;-61
2022/09/17 09:29:22;;;;;;;;;1.00;0.60;;;;;15.38;66.88;99548.31;5033228;28;8943;-61
2022/09/17 09:31:51;;;;;;;;;0.00;0.00;;;;;15.63;66.50;99546.56;5033103;28;8817;-61
2022/09/17 09:34:19;;;;;;;;;0.00;0.00;;;;;15.75;65.98;99542.56;5031910;28;8844;-61
2022/09/17 09:36:46;;;;;;;;;0.00;0.00;;;;;15.83;65.58;99550.63;5032135;28;8828;-60
2022/09/17 09:39:14;;;;;;;;;0.00;0.00;;;;;15.81;66.23;99549.97;5032701;28;8836;-61
2022/09/17 09:41:42;;;;;;;;;1.00;0.20;;;;;15.69;66.19;99556.66;5032568;28;8845;-60
2022/09/17 09:44:10;;;;;;;;;0.40;0.00;;;;;15.58;66.15;99554.25;5032115;28;8837;-61
2022/09/17 09:46:38;;;;;;;;;0.00;0.00;;;;;15.32;66.41;99561.56;5031807;28;8849;-61
2022/09/17 09:49:06;;;;;;;;;0.40;0.00;;;;;15.33;66.16;99553.31;5032206;28;9514;-61
2022/09/17 09:51:33;;;;;;;;;0.00;0.00;;;;;15.69;65.45;99543.25;5030759;28;8837;-60
2022/09/17 09:54:02;;;;;;;;;0.00;0.00;;;;;15.98;64.87;99552.53;5031419;28;8833;-60
2022/09/17 09:56:30;;;;;;;;;0.00;0.00;;;;;16.09;64.66;99551.34;5031046;28;8824;-60
2022/09/17 09:58:57;;;;;;;;;0.60;0.60;;;;;16.09;63.95;99551.34;5031722;28;8901;-61
2022/09/17 10:01:25;;;;;;;;;1.80;1.00;;;;;15.99;65.20;99553.38;5030918;28;8835;-60
2022/09/17 10:03:57;;;;;;;;;0.40;0.40;;;;;15.98;65.21;99551.66;5031313;28;8832;-62
2022/09/17 10:06:24;;;;;;;;;0.00;0.00;;;;;16.62;63.64;99548.03;5030864;28;8856;-60
2022/09/17 10:08:52;;;;;;;;;0.00;0.00;;;;;16.74;62.81;99546.69;5029319;28;8829;-60
2022/09/17 10:11:20;;;;;;;;;0.40;0.40;;;;;16.49;62.96;99553.06;5030004;28;8837;-61
2022/09/17 10:13:48;;;;;;;;;0.00;0.00;;;;;16.07;63.67;99553.38;5030308;28;8844;-61
2022/09/17 10:16:16;;;;;;;;;0.00;0.00;;;;;16.11;63.49;99549.34;5031290;28;8825;-60
2022/09/17 10:18:44;;;;;;;;;1.00;0.60;;;;;17.24;60.86;99536.44;5031284;28;8860;-60
2022/09/17 10:21:12;;;;;;;;;0.00;0.00;;;;;17.49;60.60;99532.69;5031081;28;9515;-60
2022/09/17 10:23:40;;;;;;;;;0.00;0.00;;;;;17.65;59.92;99531.75;5030519;28;8817;-60
2022/09/17 10:26:07;;;;;;;;;0.40;0.00;;;;;17.48;59.64;99522.88;5031267;28;8833;-60
2022/09/17 10:28:35;;;;;;;;;1.00;1.00;;;;;17.21;60.85;99528.72;5030593;28;8921;-60
2022/09/17 10:31:03;;;;;;;;;0.00;0.00;;;;;17.07;61.18;99529.44;5031543;28;8905;-61
2022/09/17 10:33:35;;;;;;;;;0.00;0.00;;;;;17.59;60.23;99524.34;5032279;28;9585;-61
2022/09/17 10:36:05;;;;;;;;;0.80;0.40;;;;;18.05;58.96;99524.25;5031989;28;8864;-61
2022/09/17 10:38:33;;;;;;;;;0.00;0.00;;;;;18.18;58.92;99524.47;5032345;28;8883;-61
2022/09/17 10:41:01;;;;;;;;;0.00;0.00;;;;;18.18;58.52;99520.94;5031123;28;8861;-60
2022/09/17 10:43:28;;;;;;;;;0.00;0.00;;;;;18.07;58.47;99521.38;5031229;28;9570;-60
2022/09/17 10:45:57;;;;;;;;;0.00;0.00;;;;;17.76;59.22;99518.72;5032006;28;8841;-60
2022/09/17 10:48:24;;;;;;;;;0.00;0.00;;;;;17.40;60.23;99522.94;5030530;28;8853;-60
2022/09/17 10:50:52;;;;;;;;;0.00;0.00;;;;;17.36;60.14;99516.25;5030583;28;8845;-60
2022/09/17 10:53:20;;;;;;;;;0.00;0.00;;;;;17.55;59.82;99513.09;5029308;28;8821;-60
2022/09/17 10:55:48;;;;;;;;;0.00;0.00;;;;;17.63;59.13;99507.66;5029685;28;8921;-60
2022/09/17 10:58:15;;;;;;;;;0.20;0.00;;;;;17.52;58.78;99508.09;5029878;28;8916;-60
2022/09/17 11:00:44;;;;;;;;;0.00;0.00;;;;;17.63;58.24;99510.34;5029785;28;8861;-60
2022/09/17 11:03:11;;;;;;;;;0.00;0.00;;;;;17.75;58.67;99511.66;5029538;28;8837;-60
2022/09/17 11:05:39;;;;;;;;;0.00;0.00;;;;;17.82;57.77;99501.84;5030430;28;8913;-61
2022/09/17 11:08:07;;;;;;;;;0.00;0.00;;;;;17.83;57.50;99508.91;5030819;28;8828;-61
2022/09/17 11:10:35;;;;;;;;;0.00;0.00;;;;;17.81;58.12;99497.47;5031609;28;8853;-60
2022/09/17 11:13:02;;;;;;;;;0.00;0.00;;;;;17.73;57.55;99502.91;5031163;28;8817;-60
2022/09/17 11:15:30;;;;;;;;;0.00;0.00;;;;;17.51;58.22;99492.09;5031235;28;8875;-61
2022/09/17 11:17:58;;;;;;;;;0.00;0.00;;;;;17.16;58.61;99506.88;5030668;28;9509;-61
2022/09/17 11:20:25;;;;;;;;;0.00;0.00;;;;;16.81;59.33;99523.47;5030192;28;8833;-61
2022/09/17 11:22:54;;;;;;;;;0.00;0.00;;;;;16.11;60.63;99525.16;5030530;28;8844;-60
2022/09/17 11:25:21;;;;;;;;;0.00;0.00;;;;;15.53;62.08;99521.69;5030219;28;8821;-61
2022/09/17 11:27:49;;;;;;;;;0.00;0.00;;;;;15.18;62.76;99535.31;5030388;28;8829;-60
2022/09/17 11:30:17;;;;;;;;;0.00;0.00;;;;;14.99;63.80;99535.53;5030011;28;8817;-61
2022/09/17 11:32:45;;;;;;;;;0.00;0.00;;;;;14.89;64.54;99537.50;5030618;28;8841;-60
2022/09/17 11:35:14;;;;;;;;;0.00;0.00;;;;;14.81;64.69;99540.13;5030416;28;8852;-61
2022/09/17 11:37:42;;;;;;;;;0.00;0.00;;;;;14.67;64.66;99548.75;5031378;28;9521;-61
2022/09/17 11:40:10;;;;;;;;;0.00;0.00;;;;;14.54;64.72;99541.13;5029794;28;8813;-61
2022/09/17 11:42:38;;;;;;;;;0.00;0.00;;;;;14.45;65.00;99542.06;5030527;28;8913;-61